sensor_id;sensor_type;location;lat;lon;timestamp;P1;durP1;ratioP1;P2;durP2;ratioP2
29200;SDS011;16244;51.956;12.980;2023-09-12T00:02:17;44.13;;;36.97;;
29200;SDS011;16244;51.956;12.980;2023-09-12T00:04:45;35.43;;;31.80;;
29200;SDS011;16244;51.956;12.980;2023-09-12T00:07:12;37.43;;;28.23;;
29200;SDS011;16244;51.956;12.980;2023-09-12T00:09:40;39.53;;;35.37;;
29200;SDS011;16244;51.956;12.980;2023-09-12T00:12:07;27.63;;;24.73;;
29200;SDS011;16244;51.956;12.980;2023-09-12T00:14:36;38.60;;;32.47;;
29200;SDS011;16244;51.956;12.980;2023-09-12T00:17:04;40.53;;;34.30;;
29200;SDS011;16244;51.956;12.980;2023-09-12T00:19:31;39.77;;;35.97;;
29200;SDS011;16244;51.956;12.980;2023-09-12T00:21:59;54.00;;;48.97;;
29200;SDS011;16244;51.956;12.980;2023-09-12T00:24:26;38.33;;;32.97;;
29200;SDS011;16244;51.956;12.980;2023-09-12T00:26:54;34.27;;;30.57;;
29200;SDS011;16244;51.956;12.980;2023-09-12T00:29:21;37.10;;;29.83;;
29200;SDS011;16244;51.956;12.980;2023-09-12T00:31:50;52.90;;;48.07;;
29200;SDS011;16244;51.956;12.980;2023-09-12T00:34:17;42.53;;;37.57;;
29200;SDS011;16244;51.956;12.980;2023-09-12T00:36:45;38.77;;;29.20;;
29200;SDS011;16244;51.956;12.980;2023-09-12T00:39:12;45.20;;;40.30;;
29200;SDS011;16244;51.956;12.980;2023-09-12T00:41:40;39.57;;;31.03;;
29200;SDS011;16244;51.956;12.980;2023-09-12T00:44:09;47.70;;;42.67;;
29200;SDS011;16244;51.956;12.980;2023-09-12T00:46:37;33.67;;;29.97;;
29200;SDS011;16244;51.956;12.980;2023-09-12T00:49:07;40.87;;;36.80;;
29200;SDS011;16244;51.956;12.980;2023-09-12T00:51:35;37.60;;;33.60;;
29200;SDS011;16244;51.956;12.980;2023-09-12T00:54:04;54.23;;;48.73;;
29200;SDS011;16244;51.956;12.980;2023-09-12T00:56:32;56.63;;;51.57;;
29200;SDS011;16244;51.956;12.980;2023-09-12T00:59:00;47.73;;;36.33;;
29200;SDS011;16244;51.956;12.980;2023-09-12T01:01:28;47.40;;;42.80;;
29200;SDS011;16244;51.956;12.980;2023-09-12T01:03:56;43.90;;;36.33;;
29200;SDS011;16244;51.956;12.980;2023-09-12T01:06:25;40.77;;;36.67;;
29200;SDS011;16244;51.956;12.980;2023-09-12T01:08:55;39.40;;;32.67;;
29200;SDS011;16244;51.956;12.980;2023-09-12T01:11:23;42.37;;;38.37;;
29200;SDS011;16244;51.956;12.980;2023-09-12T01:13:51;33.47;;;29.33;;
29200;SDS011;16244;51.956;12.980;2023-09-12T01:16:18;35.07;;;31.30;;
29200;SDS011;16244;51.956;12.980;2023-09-12T01:18:46;35.07;;;31.60;;
29200;SDS011;16244;51.956;12.980;2023-09-12T01:21:24;48.03;;;43.63;;
29200;SDS011;16244;51.956;12.980;2023-09-12T01:24:12;39.07;;;34.83;;
29200;SDS011;16244;51.956;12.980;2023-09-12T01:26:56;37.70;;;34.03;;
29200;SDS011;16244;51.956;12.980;2023-09-12T01:29:33;41.67;;;33.43;;
29200;SDS011;16244;51.956;12.980;2023-09-12T01:32:02;29.77;;;26.77;;
29200;SDS011;16244;51.956;12.980;2023-09-12T01:34:30;34.87;;;29.87;;
29200;SDS011;16244;51.956;12.980;2023-09-12T01:36:59;33.97;;;30.37;;
29200;SDS011;16244;51.956;12.980;2023-09-12T01:39:26;36.43;;;32.93;;
29200;SDS011;16244;51.956;12.980;2023-09-12T01:41:54;43.53;;;39.27;;
29200;SDS011;16244;51.956;12.980;2023-09-12T01:44:22;31.67;;;28.80;;
29200;SDS011;16244;51.956;12.980;2023-09-12T01:46:53;40.90;;;36.63;;
29200;SDS011;16244;51.956;12.980;2023-09-12T01:49:21;39.80;;;35.37;;
29200;SDS011;16244;51.956;12.980;2023-09-12T01:51:51;34.73;;;26.47;;
29200;SDS011;16244;51.956;12.980;2023-09-12T01:54:19;34.90;;;31.37;;
29200;SDS011;16244;51.956;12.980;2023-09-12T01:56:48;37.07;;;33.07;;
29200;SDS011;16244;51.956;12.980;2023-09-12T01:59:17;39.77;;;33.50;;
29200;SDS011;16244;51.956;12.980;2023-09-12T02:01:45;38.53;;;33.20;;
29200;SDS011;16244;51.956;12.980;2023-09-12T02:04:14;51.70;;;46.77;;
29200;SDS011;16244;51.956;12.980;2023-09-12T02:06:42;44.53;;;39.40;;
29200;SDS011;16244;51.956;12.980;2023-09-12T02:09:09;53.57;;;48.80;;
29200;SDS011;16244;51.956;12.980;2023-09-12T02:11:37;43.27;;;36.20;;
29200;SDS011;16244;51.956;12.980;2023-09-12T02:14:04;38.13;;;32.67;;
29200;SDS011;16244;51.956;12.980;2023-09-12T02:16:32;45.13;;;40.90;;
29200;SDS011;16244;51.956;12.980;2023-09-12T02:19:03;35.70;;;31.47;;
29200;SDS011;16244;51.956;12.980;2023-09-12T02:21:33;40.80;;;35.97;;
29200;SDS011;16244;51.956;12.980;2023-09-12T02:24:01;37.67;;;30.70;;
29200;SDS011;16244;51.956;12.980;2023-09-12T02:26:29;35.40;;;32.00;;
29200;SDS011;16244;51.956;12.980;2023-09-12T02:29:02;38.40;;;34.30;;
29200;SDS011;16244;51.956;12.980;2023-09-12T02:31:31;36.20;;;32.77;;
29200;SDS011;16244;51.956;12.980;2023-09-12T02:33:59;42.13;;;38.27;;
29200;SDS011;16244;51.956;12.980;2023-09-12T02:36:27;44.33;;;39.77;;
29200;SDS011;16244;51.956;12.980;2023-09-12T02:38:57;41.60;;;37.17;;
29200;SDS011;16244;51.956;12.980;2023-09-12T02:41:24;39.73;;;35.23;;
29200;SDS011;16244;51.956;12.980;2023-09-12T02:43:52;43.03;;;38.23;;
29200;SDS011;16244;51.956;12.980;2023-09-12T02:46:19;48.37;;;43.33;;
29200;SDS011;16244;51.956;12.980;2023-09-12T02:48:47;36.27;;;30.17;;
29200;SDS011;16244;51.956;12.980;2023-09-12T02:51:14;36.90;;;33.00;;
29200;SDS011;16244;51.956;12.980;2023-09-12T02:53:42;35.00;;;29.87;;
29200;SDS011;16244;51.956;12.980;2023-09-12T02:56:11;44.20;;;37.03;;
29200;SDS011;16244;51.956;12.980;2023-09-12T02:58:39;43.57;;;37.50;;
29200;SDS011;16244;51.956;12.980;2023-09-12T03:01:06;45.77;;;39.37;;
29200;SDS011;16244;51.956;12.980;2023-09-12T03:03:34;41.47;;;37.07;;
29200;SDS011;16244;51.956;12.980;2023-09-12T03:06:01;39.80;;;35.43;;
29200;SDS011;16244;51.956;12.980;2023-09-12T03:08:29;60.13;;;54.80;;
29200;SDS011;16244;51.956;12.980;2023-09-12T03:10:57;48.33;;;36.77;;
29200;SDS011;16244;51.956;12.980;2023-09-12T03:13:27;59.20;;;53.30;;
29200;SDS011;16244;51.956;12.980;2023-09-12T03:15:55;54.93;;;49.83;;
29200;SDS011;16244;51.956;12.980;2023-09-12T03:18:22;51.17;;;45.53;;
29200;SDS011;16244;51.956;12.980;2023-09-12T03:20:50;46.33;;;40.43;;
29200;SDS011;16244;51.956;12.980;2023-09-12T03:23:18;41.70;;;32.90;;
29200;SDS011;16244;51.956;12.980;2023-09-12T03:25:46;37.40;;;33.37;;
29200;SDS011;16244;51.956;12.980;2023-09-12T03:28:14;51.60;;;46.37;;
29200;SDS011;16244;51.956;12.980;2023-09-12T03:30:42;45.57;;;40.83;;
29200;SDS011;16244;51.956;12.980;2023-09-12T03:33:10;40.07;;;36.17;;
29200;SDS011;16244;51.956;12.980;2023-09-12T03:35:37;41.97;;;37.17;;
29200;SDS011;16244;51.956;12.980;2023-09-12T03:38:05;55.40;;;50.63;;
29200;SDS011;16244;51.956;12.980;2023-09-12T03:40:32;46.03;;;37.20;;
29200;SDS011;16244;51.956;12.980;2023-09-12T03:43:00;55.13;;;50.43;;
29200;SDS011;16244;51.956;12.980;2023-09-12T03:45:27;38.30;;;34.03;;
29200;SDS011;16244;51.956;12.980;2023-09-12T03:47:56;40.80;;;37.03;;
29200;SDS011;16244;51.956;12.980;2023-09-12T03:50:24;46.73;;;42.07;;
29200;SDS011;16244;51.956;12.980;2023-09-12T03:52:51;37.33;;;33.23;;
29200;SDS011;16244;51.956;12.980;2023-09-12T03:55:19;35.90;;;30.47;;
29200;SDS011;16244;51.956;12.980;2023-09-12T03:57:47;50.07;;;45.57;;
29200;SDS011;16244;51.956;12.980;2023-09-12T04:00:15;48.33;;;44.43;;
29200;SDS011;16244;51.956;12.980;2023-09-12T04:02:42;37.93;;;34.27;;
29200;SDS011;16244;51.956;12.980;2023-09-12T04:05:11;39.70;;;35.67;;
29200;SDS011;16244;51.956;12.980;2023-09-12T04:07:39;42.90;;;36.03;;
29200;SDS011;16244;51.956;12.980;2023-09-12T04:10:07;48.87;;;43.93;;
29200;SDS011;16244;51.956;12.980;2023-09-12T04:12:35;37.40;;;33.43;;
29200;SDS011;16244;51.956;12.980;2023-09-12T04:15:02;39.67;;;35.20;;
29200;SDS011;16244;51.956;12.980;2023-09-12T04:17:30;38.07;;;33.23;;
29200;SDS011;16244;51.956;12.980;2023-09-12T04:19:58;40.67;;;36.60;;
29200;SDS011;16244;51.956;12.980;2023-09-12T04:22:27;39.80;;;35.73;;
29200;SDS011;16244;51.956;12.980;2023-09-12T04:24:55;42.83;;;37.90;;
29200;SDS011;16244;51.956;12.980;2023-09-12T04:27:22;31.30;;;28.33;;
29200;SDS011;16244;51.956;12.980;2023-09-12T04:29:50;42.40;;;38.57;;
29200;SDS011;16244;51.956;12.980;2023-09-12T04:32:17;53.77;;;48.83;;
29200;SDS011;16244;51.956;12.980;2023-09-12T04:34:49;40.07;;;35.17;;
29200;SDS011;16244;51.956;12.980;2023-09-12T04:37:16;43.20;;;38.97;;
29200;SDS011;16244;51.956;12.980;2023-09-12T04:39:45;36.00;;;31.90;;
29200;SDS011;16244;51.956;12.980;2023-09-12T04:42:13;43.77;;;39.27;;
29200;SDS011;16244;51.956;12.980;2023-09-12T04:44:41;50.67;;;42.93;;
29200;SDS011;16244;51.956;12.980;2023-09-12T04:47:09;45.17;;;40.57;;
29200;SDS011;16244;51.956;12.980;2023-09-12T04:49:36;63.37;;;58.47;;
29200;SDS011;16244;51.956;12.980;2023-09-12T04:52:04;48.27;;;41.07;;
29200;SDS011;16244;51.956;12.980;2023-09-12T04:54:32;48.43;;;40.83;;
29200;SDS011;16244;51.956;12.980;2023-09-12T04:57:01;48.53;;;41.53;;
29200;SDS011;16244;51.956;12.980;2023-09-12T04:59:28;50.03;;;44.63;;
29200;SDS011;16244;51.956;12.980;2023-09-12T05:01:56;42.30;;;37.77;;
29200;SDS011;16244;51.956;12.980;2023-09-12T05:04:23;44.30;;;39.70;;
29200;SDS011;16244;51.956;12.980;2023-09-12T05:06:51;43.77;;;39.07;;
29200;SDS011;16244;51.956;12.980;2023-09-12T05:09:19;46.07;;;41.37;;
29200;SDS011;16244;51.956;12.980;2023-09-12T05:11:47;57.97;;;41.17;;
29200;SDS011;16244;51.956;12.980;2023-09-12T05:14:15;42.23;;;38.27;;
29200;SDS011;16244;51.956;12.980;2023-09-12T05:16:43;46.63;;;41.90;;
29200;SDS011;16244;51.956;12.980;2023-09-12T05:19:11;44.37;;;39.57;;
29200;SDS011;16244;51.956;12.980;2023-09-12T05:21:38;42.97;;;38.63;;
29200;SDS011;16244;51.956;12.980;2023-09-12T05:24:06;53.60;;;48.63;;
29200;SDS011;16244;51.956;12.980;2023-09-12T05:26:33;45.77;;;40.93;;
29200;SDS011;16244;51.956;12.980;2023-09-12T05:29:01;41.00;;;36.30;;
29200;SDS011;16244;51.956;12.980;2023-09-12T05:31:30;35.93;;;32.13;;
29200;SDS011;16244;51.956;12.980;2023-09-12T05:33:58;37.60;;;33.80;;
29200;SDS011;16244;51.956;12.980;2023-09-12T05:36:25;39.60;;;35.83;;
29200;SDS011;16244;51.956;12.980;2023-09-12T05:38:53;52.83;;;47.70;;
29200;SDS011;16244;51.956;12.980;2023-09-12T05:41:22;49.87;;;44.83;;
29200;SDS011;16244;51.956;12.980;2023-09-12T05:43:49;37.63;;;31.07;;
29200;SDS011;16244;51.956;12.980;2023-09-12T05:46:17;39.50;;;35.13;;
29200;SDS011;16244;51.956;12.980;2023-09-12T05:48:46;55.20;;;50.30;;
29200;SDS011;16244;51.956;12.980;2023-09-12T05:51:13;40.90;;;34.20;;
29200;SDS011;16244;51.956;12.980;2023-09-12T05:53:41;42.00;;;36.37;;
29200;SDS011;16244;51.956;12.980;2023-09-12T05:56:08;44.70;;;40.17;;
29200;SDS011;16244;51.956;12.980;2023-09-12T05:58:36;38.97;;;35.13;;
29200;SDS011;16244;51.956;12.980;2023-09-12T06:01:07;37.73;;;33.87;;
29200;SDS011;16244;51.956;12.980;2023-09-12T06:03:35;39.87;;;35.67;;
29200;SDS011;16244;51.956;12.980;2023-09-12T06:06:04;45.93;;;37.47;;
29200;SDS011;16244;51.956;12.980;2023-09-12T06:08:31;42.00;;;33.77;;
29200;SDS011;16244;51.956;12.980;2023-09-12T06:10:59;41.50;;;36.63;;
29200;SDS011;16244;51.956;12.980;2023-09-12T06:13:26;46.13;;;41.30;;
29200;SDS011;16244;51.956;12.980;2023-09-12T06:15:54;41.57;;;33.80;;
29200;SDS011;16244;51.956;12.980;2023-09-12T06:18:21;53.87;;;38.57;;
29200;SDS011;16244;51.956;12.980;2023-09-12T06:20:50;43.43;;;38.97;;
29200;SDS011;16244;51.956;12.980;2023-09-12T06:23:19;44.10;;;32.47;;
29200;SDS011;16244;51.956;12.980;2023-09-12T06:25:47;39.83;;;35.60;;
29200;SDS011;16244;51.956;12.980;2023-09-12T06:28:24;43.67;;;34.00;;
29200;SDS011;16244;51.956;12.980;2023-09-12T06:30:52;48.97;;;44.47;;
29200;SDS011;16244;51.956;12.980;2023-09-12T06:33:19;41.20;;;35.70;;
29200;SDS011;16244;51.956;12.980;2023-09-12T06:35:48;40.40;;;32.87;;
29200;SDS011;16244;51.956;12.980;2023-09-12T06:38:19;38.87;;;30.47;;
29200;SDS011;16244;51.956;12.980;2023-09-12T06:40:47;39.03;;;34.77;;
29200;SDS011;16244;51.956;12.980;2023-09-12T06:43:15;46.73;;;42.20;;
29200;SDS011;16244;51.956;12.980;2023-09-12T06:45:43;46.13;;;41.47;;
29200;SDS011;16244;51.956;12.980;2023-09-12T06:48:11;34.57;;;31.07;;
29200;SDS011;16244;51.956;12.980;2023-09-12T06:50:39;39.87;;;35.87;;
29200;SDS011;16244;51.956;12.980;2023-09-12T06:53:06;28.93;;;24.87;;
29200;SDS011;16244;51.956;12.980;2023-09-12T06:55:37;30.10;;;27.03;;
29200;SDS011;16244;51.956;12.980;2023-09-12T06:58:04;32.83;;;29.30;;
29200;SDS011;16244;51.956;12.980;2023-09-12T07:00:32;28.43;;;25.43;;
29200;SDS011;16244;51.956;12.980;2023-09-12T07:02:59;30.50;;;27.60;;
29200;SDS011;16244;51.956;12.980;2023-09-12T07:05:27;38.50;;;34.50;;
29200;SDS011;16244;51.956;12.980;2023-09-12T07:07:54;27.60;;;25.20;;
29200;SDS011;16244;51.956;12.980;2023-09-12T07:10:22;28.90;;;25.80;;
29200;SDS011;16244;51.956;12.980;2023-09-12T07:12:51;30.87;;;22.37;;
29200;SDS011;16244;51.956;12.980;2023-09-12T07:15:19;24.30;;;22.53;;
29200;SDS011;16244;51.956;12.980;2023-09-12T07:17:47;27.17;;;22.00;;
29200;SDS011;16244;51.956;12.980;2023-09-12T07:20:14;25.73;;;23.23;;
29200;SDS011;16244;51.956;12.980;2023-09-12T07:22:43;24.40;;;22.27;;
29200;SDS011;16244;51.956;12.980;2023-09-12T07:25:11;20.60;;;18.50;;
29200;SDS011;16244;51.956;12.980;2023-09-12T07:27:40;15.97;;;14.50;;
29200;SDS011;16244;51.956;12.980;2023-09-12T07:30:09;19.43;;;16.87;;
29200;SDS011;16244;51.956;12.980;2023-09-12T07:32:37;14.60;;;13.20;;
29200;SDS011;16244;51.956;12.980;2023-09-12T07:35:05;14.27;;;13.20;;
29200;SDS011;16244;51.956;12.980;2023-09-12T07:37:33;16.07;;;14.50;;
29200;SDS011;16244;51.956;12.980;2023-09-12T07:40:00;11.90;;;10.83;;
29200;SDS011;16244;51.956;12.980;2023-09-12T07:42:32;13.27;;;11.93;;
29200;SDS011;16244;51.956;12.980;2023-09-12T07:45:00;14.10;;;13.00;;
29200;SDS011;16244;51.956;12.980;2023-09-12T07:47:30;13.93;;;12.53;;
29200;SDS011;16244;51.956;12.980;2023-09-12T07:49:59;11.43;;;10.40;;
29200;SDS011;16244;51.956;12.980;2023-09-12T07:52:27;15.77;;;12.50;;
29200;SDS011;16244;51.956;12.980;2023-09-12T07:54:58;12.40;;;11.32;;
29200;SDS011;16244;51.956;12.980;2023-09-12T07:57:26;11.57;;;10.40;;
29200;SDS011;16244;51.956;12.980;2023-09-12T07:59:55;11.13;;;10.00;;
29200;SDS011;16244;51.956;12.980;2023-09-12T08:02:22;9.32;;;8.45;;
29200;SDS011;16244;51.956;12.980;2023-09-12T08:04:51;10.38;;;8.05;;
29200;SDS011;16244;51.956;12.980;2023-09-12T08:07:19;9.23;;;8.43;;
29200;SDS011;16244;51.956;12.980;2023-09-12T08:09:48;9.18;;;8.35;;
29200;SDS011;16244;51.956;12.980;2023-09-12T08:12:16;8.40;;;7.65;;
29200;SDS011;16244;51.956;12.980;2023-09-12T08:14:44;7.47;;;6.88;;
29200;SDS011;16244;51.956;12.980;2023-09-12T08:17:12;10.30;;;6.43;;
29200;SDS011;16244;51.956;12.980;2023-09-12T08:19:40;10.23;;;8.05;;
29200;SDS011;16244;51.956;12.980;2023-09-12T08:22:10;7.70;;;7.10;;
29200;SDS011;16244;51.956;12.980;2023-09-12T08:24:38;11.10;;;7.82;;
29200;SDS011;16244;51.956;12.980;2023-09-12T08:27:06;10.38;;;8.75;;
29200;SDS011;16244;51.956;12.980;2023-09-12T08:29:34;12.38;;;7.00;;
29200;SDS011;16244;51.956;12.980;2023-09-12T08:32:02;8.23;;;6.55;;
29200;SDS011;16244;51.956;12.980;2023-09-12T08:34:30;11.13;;;6.13;;
29200;SDS011;16244;51.956;12.980;2023-09-12T08:36:58;18.13;;;7.68;;
29200;SDS011;16244;51.956;12.980;2023-09-12T08:39:27;11.63;;;8.07;;
29200;SDS011;16244;51.956;12.980;2023-09-12T08:42:06;11.30;;;6.45;;
29200;SDS011;16244;51.956;12.980;2023-09-12T08:44:38;15.38;;;5.70;;
29200;SDS011;16244;51.956;12.980;2023-09-12T08:47:07;12.73;;;7.05;;
29200;SDS011;16244;51.956;12.980;2023-09-12T08:49:37;7.15;;;6.57;;
29200;SDS011;16244;51.956;12.980;2023-09-12T08:52:04;6.10;;;5.60;;
29200;SDS011;16244;51.956;12.980;2023-09-12T08:54:33;7.70;;;5.93;;
29200;SDS011;16244;51.956;12.980;2023-09-12T09:39:37;4.85;;;4.40;;
29200;SDS011;16244;51.956;12.980;2023-09-12T09:45:06;6.40;;;3.97;;
29200;SDS011;16244;51.956;12.980;2023-09-12T09:47:52;5.65;;;3.80;;
29200;SDS011;16244;51.956;12.980;2023-09-12T09:50:41;10.52;;;4.40;;
29200;SDS011;16244;51.956;12.980;2023-09-12T09:53:27;4.18;;;3.45;;
29200;SDS011;16244;51.956;12.980;2023-09-12T09:56:14;7.82;;;4.03;;
29200;SDS011;16244;51.956;12.980;2023-09-12T09:59:00;4.07;;;3.72;;
29200;SDS011;16244;51.956;12.980;2023-09-12T10:01:46;4.20;;;3.90;;
29200;SDS011;16244;51.956;12.980;2023-09-12T10:04:34;7.18;;;4.30;;
29200;SDS011;16244;51.956;12.980;2023-09-12T10:07:20;4.82;;;4.10;;
29200;SDS011;16244;51.956;12.980;2023-09-12T10:10:06;6.03;;;4.53;;
29200;SDS011;16244;51.956;12.980;2023-09-12T10:12:55;9.23;;;4.03;;
29200;SDS011;16244;51.956;12.980;2023-09-12T10:15:41;8.23;;;4.07;;
29200;SDS011;16244;51.956;12.980;2023-09-12T10:18:28;7.03;;;3.97;;
29200;SDS011;16244;51.956;12.980;2023-09-12T10:23:53;4.47;;;3.70;;
29200;SDS011;16244;51.956;12.980;2023-09-12T10:26:41;6.60;;;4.07;;
29200;SDS011;16244;51.956;12.980;2023-09-12T10:29:30;6.25;;;3.88;;
29200;SDS011;16244;51.956;12.980;2023-09-12T10:32:16;6.55;;;4.35;;
29200;SDS011;16244;51.956;12.980;2023-09-12T10:35:04;3.70;;;3.50;;
29200;SDS011;16244;51.956;12.980;2023-09-12T10:37:52;5.20;;;4.07;;
29200;SDS011;16244;51.956;12.980;2023-09-12T10:40:38;6.72;;;4.47;;
29200;SDS011;16244;51.956;12.980;2023-09-12T10:43:07;9.30;;;4.38;;
29200;SDS011;16244;51.956;12.980;2023-09-12T10:45:56;4.10;;;3.75;;
29200;SDS011;16244;51.956;12.980;2023-09-12T10:51:16;9.38;;;4.07;;
29200;SDS011;16244;51.956;12.980;2023-09-12T10:54:07;5.05;;;4.10;;
29200;SDS011;16244;51.956;12.980;2023-09-12T10:57:04;9.00;;;4.65;;
29200;SDS011;16244;51.956;12.980;2023-09-12T11:00:10;6.03;;;2.85;;
29200;SDS011;16244;51.956;12.980;2023-09-12T11:02:58;7.15;;;4.07;;
29200;SDS011;16244;51.956;12.980;2023-09-12T11:05:36;15.90;;;4.28;;
29200;SDS011;16244;51.956;12.980;2023-09-12T11:08:05;5.35;;;3.97;;
29200;SDS011;16244;51.956;12.980;2023-09-12T11:10:32;4.45;;;3.80;;
29200;SDS011;16244;51.956;12.980;2023-09-12T11:16:11;6.05;;;4.20;;
29200;SDS011;16244;51.956;12.980;2023-09-12T11:21:44;9.57;;;3.95;;
29200;SDS011;16244;51.956;12.980;2023-09-12T11:24:12;4.40;;;4.00;;
29200;SDS011;16244;51.956;12.980;2023-09-12T11:26:52;6.78;;;5.05;;
29200;SDS011;16244;51.956;12.980;2023-09-12T11:29:21;5.47;;;4.80;;
29200;SDS011;16244;51.956;12.980;2023-09-12T11:31:53;13.10;;;4.18;;
29200;SDS011;16244;51.956;12.980;2023-09-12T11:34:26;20.23;;;4.82;;
29200;SDS011;16244;51.956;12.980;2023-09-12T11:36:54;8.27;;;4.57;;
29200;SDS011;16244;51.956;12.980;2023-09-12T11:39:24;17.63;;;4.82;;
29200;SDS011;16244;51.956;12.980;2023-09-12T11:41:52;7.07;;;4.68;;
29200;SDS011;16244;51.956;12.980;2023-09-12T11:44:22;5.55;;;4.30;;
29200;SDS011;16244;51.956;12.980;2023-09-12T11:46:50;4.65;;;4.35;;
29200;SDS011;16244;51.956;12.980;2023-09-12T11:49:18;7.05;;;4.40;;
29200;SDS011;16244;51.956;12.980;2023-09-12T11:51:49;5.05;;;4.60;;
29200;SDS011;16244;51.956;12.980;2023-09-12T11:54:18;6.85;;;4.05;;
29200;SDS011;16244;51.956;12.980;2023-09-12T11:56:47;12.57;;;4.18;;
29200;SDS011;16244;51.956;12.980;2023-09-12T11:59:22;6.20;;;4.32;;
29200;SDS011;16244;51.956;12.980;2023-09-12T12:01:50;9.98;;;4.57;;
29200;SDS011;16244;51.956;12.980;2023-09-12T12:04:19;6.15;;;3.58;;
29200;SDS011;16244;51.956;12.980;2023-09-12T12:06:49;5.10;;;4.55;;
29200;SDS011;16244;51.956;12.980;2023-09-12T12:09:18;15.18;;;4.60;;
29200;SDS011;16244;51.956;12.980;2023-09-12T12:11:47;12.40;;;4.57;;
29200;SDS011;16244;51.956;12.980;2023-09-12T12:14:15;4.25;;;3.90;;
29200;SDS011;16244;51.956;12.980;2023-09-12T12:16:45;8.88;;;4.85;;
29200;SDS011;16244;51.956;12.980;2023-09-12T12:19:13;5.13;;;4.43;;
29200;SDS011;16244;51.956;12.980;2023-09-12T12:21:41;4.10;;;3.80;;
29200;SDS011;16244;51.956;12.980;2023-09-12T12:24:13;8.50;;;3.90;;
29200;SDS011;16244;51.956;12.980;2023-09-12T12:26:41;4.03;;;3.65;;
29200;SDS011;16244;51.956;12.980;2023-09-12T12:29:09;6.00;;;3.95;;
29200;SDS011;16244;51.956;12.980;2023-09-12T12:31:39;4.45;;;4.07;;
29200;SDS011;16244;51.956;12.980;2023-09-12T12:34:06;5.63;;;4.82;;
29200;SDS011;16244;51.956;12.980;2023-09-12T12:36:40;5.85;;;3.83;;
29200;SDS011;16244;51.956;12.980;2023-09-12T12:39:11;7.13;;;3.97;;
29200;SDS011;16244;51.956;12.980;2023-09-12T12:41:38;4.05;;;3.63;;
29200;SDS011;16244;51.956;12.980;2023-09-12T12:44:06;6.30;;;4.15;;
29200;SDS011;16244;51.956;12.980;2023-09-12T12:46:34;12.45;;;3.20;;
29200;SDS011;16244;51.956;12.980;2023-09-12T12:49:14;4.72;;;3.17;;
29200;SDS011;16244;51.956;12.980;2023-09-12T12:51:42;3.22;;;3.03;;
29200;SDS011;16244;51.956;12.980;2023-09-12T12:54:11;2.92;;;2.72;;
29200;SDS011;16244;51.956;12.980;2023-09-12T12:56:39;3.08;;;2.88;;
29200;SDS011;16244;51.956;12.980;2023-09-12T12:59:07;6.05;;;3.65;;
29200;SDS011;16244;51.956;12.980;2023-09-12T13:01:35;3.60;;;3.28;;
29200;SDS011;16244;51.956;12.980;2023-09-12T13:04:05;3.42;;;2.90;;
29200;SDS011;16244;51.956;12.980;2023-09-12T13:06:33;3.53;;;3.00;;
29200;SDS011;16244;51.956;12.980;2023-09-12T13:09:02;9.13;;;4.30;;
29200;SDS011;16244;51.956;12.980;2023-09-12T13:11:32;3.72;;;3.03;;
29200;SDS011;16244;51.956;12.980;2023-09-12T13:14:01;5.25;;;2.42;;
29200;SDS011;16244;51.956;12.980;2023-09-12T13:16:34;9.15;;;3.97;;
29200;SDS011;16244;51.956;12.980;2023-09-12T13:19:02;4.03;;;3.45;;
29200;SDS011;16244;51.956;12.980;2023-09-12T13:21:30;3.30;;;2.97;;
29200;SDS011;16244;51.956;12.980;2023-09-12T13:23:58;5.43;;;2.90;;
29200;SDS011;16244;51.956;12.980;2023-09-12T13:26:26;3.28;;;3.13;;
29200;SDS011;16244;51.956;12.980;2023-09-12T13:28:55;3.83;;;3.08;;
29200;SDS011;16244;51.956;12.980;2023-09-12T13:31:23;9.82;;;5.63;;
29200;SDS011;16244;51.956;12.980;2023-09-12T13:33:51;5.95;;;3.15;;
29200;SDS011;16244;51.956;12.980;2023-09-12T13:36:20;7.32;;;3.75;;
29200;SDS011;16244;51.956;12.980;2023-09-12T13:38:47;6.25;;;3.28;;
29200;SDS011;16244;51.956;12.980;2023-09-12T13:41:16;7.22;;;3.15;;
29200;SDS011;16244;51.956;12.980;2023-09-12T13:43:44;8.13;;;3.55;;
29200;SDS011;16244;51.956;12.980;2023-09-12T13:46:13;10.60;;;3.70;;
29200;SDS011;16244;51.956;12.980;2023-09-12T13:48:42;6.72;;;3.03;;
29200;SDS011;16244;51.956;12.980;2023-09-12T13:51:09;6.28;;;4.13;;
29200;SDS011;16244;51.956;12.980;2023-09-12T13:53:38;4.30;;;3.90;;
29200;SDS011;16244;51.956;12.980;2023-09-12T13:56:06;3.25;;;3.05;;
29200;SDS011;16244;51.956;12.980;2023-09-12T13:58:34;5.82;;;2.70;;
29200;SDS011;16244;51.956;12.980;2023-09-12T14:01:01;9.05;;;3.08;;
29200;SDS011;16244;51.956;12.980;2023-09-12T14:03:31;3.13;;;2.90;;
29200;SDS011;16244;51.956;12.980;2023-09-12T14:05:58;3.10;;;2.90;;
29200;SDS011;16244;51.956;12.980;2023-09-12T14:08:25;3.58;;;3.35;;
29200;SDS011;16244;51.956;12.980;2023-09-12T14:10:53;4.30;;;4.00;;
29200;SDS011;16244;51.956;12.980;2023-09-12T14:13:21;6.38;;;2.40;;
29200;SDS011;16244;51.956;12.980;2023-09-12T14:15:48;3.45;;;3.15;;
29200;SDS011;16244;51.956;12.980;2023-09-12T14:18:16;10.27;;;4.68;;
29200;SDS011;16244;51.956;12.980;2023-09-12T14:20:45;11.18;;;3.40;;
29200;SDS011;16244;51.956;12.980;2023-09-12T14:23:13;2.53;;;2.38;;
29200;SDS011;16244;51.956;12.980;2023-09-12T14:25:40;4.30;;;2.80;;
29200;SDS011;16244;51.956;12.980;2023-09-12T14:28:07;3.53;;;3.20;;
29200;SDS011;16244;51.956;12.980;2023-09-12T14:30:35;3.45;;;2.97;;
29200;SDS011;16244;51.956;12.980;2023-09-12T14:33:04;4.90;;;2.70;;
29200;SDS011;16244;51.956;12.980;2023-09-12T14:35:31;4.18;;;3.78;;
29200;SDS011;16244;51.956;12.980;2023-09-12T14:38:00;4.30;;;3.80;;
29200;SDS011;16244;51.956;12.980;2023-09-12T14:40:28;3.80;;;3.33;;
29200;SDS011;16244;51.956;12.980;2023-09-12T14:42:55;3.10;;;3.00;;
29200;SDS011;16244;51.956;12.980;2023-09-12T14:45:23;5.93;;;2.42;;
29200;SDS011;16244;51.956;12.980;2023-09-12T14:47:51;3.70;;;2.45;;
29200;SDS011;16244;51.956;12.980;2023-09-12T14:50:21;7.65;;;3.72;;
29200;SDS011;16244;51.956;12.980;2023-09-12T14:52:49;3.60;;;3.30;;
29200;SDS011;16244;51.956;12.980;2023-09-12T14:55:18;2.92;;;2.78;;
29200;SDS011;16244;51.956;12.980;2023-09-12T14:57:46;3.88;;;3.58;;
29200;SDS011;16244;51.956;12.980;2023-09-12T15:00:13;3.97;;;3.50;;
29200;SDS011;16244;51.956;12.980;2023-09-12T15:02:41;5.20;;;3.03;;
29200;SDS011;16244;51.956;12.980;2023-09-12T15:05:08;3.42;;;2.80;;
29200;SDS011;16244;51.956;12.980;2023-09-12T15:07:36;3.05;;;2.75;;
29200;SDS011;16244;51.956;12.980;2023-09-12T15:10:05;5.25;;;3.03;;
29200;SDS011;16244;51.956;12.980;2023-09-12T15:12:34;3.80;;;3.40;;
29200;SDS011;16244;51.956;12.980;2023-09-12T15:15:02;10.10;;;3.83;;
29200;SDS011;16244;51.956;12.980;2023-09-12T15:17:30;3.38;;;3.15;;
29200;SDS011;16244;51.956;12.980;2023-09-12T15:19:58;4.97;;;3.40;;
29200;SDS011;16244;51.956;12.980;2023-09-12T15:22:25;7.00;;;3.53;;
29200;SDS011;16244;51.956;12.980;2023-09-12T15:24:53;3.83;;;3.47;;
29200;SDS011;16244;51.956;12.980;2023-09-12T15:27:21;4.25;;;3.17;;
29200;SDS011;16244;51.956;12.980;2023-09-12T15:29:50;4.25;;;2.92;;
29200;SDS011;16244;51.956;12.980;2023-09-12T15:32:17;4.22;;;3.08;;